createdAt,value
2018-10-09T00:00:38.875Z,7.35
2018-10-09T00:01:38.824Z,7.43
2018-10-09T00:02:38.801Z,7.50
2018-10-09T00:03:38.782Z,7.46
2018-10-09T00:04:38.758Z,7.58
2018-10-09T00:05:38.739Z,7.64
2018-10-09T00:06:38.721Z,7.68
2018-10-09T00:07:38.698Z,7.71
2018-10-09T00:08:38.681Z,7.74
2018-10-09T00:09:38.650Z,7.75
2018-10-09T00:10:38.626Z,7.80
2018-10-09T00:11:38.607Z,7.95
2018-10-09T00:12:38.590Z,7.93
2018-10-09T00:13:38.568Z,7.95
2018-10-09T00:14:38.546Z,8.01
2018-10-09T00:15:38.521Z,7.98
2018-10-09T00:16:38.498Z,8.08
2018-10-09T00:17:38.479Z,8.10
2018-10-09T00:18:38.458Z,8.16
2018-10-09T00:19:38.435Z,8.08
2018-10-09T00:20:38.413Z,8.15
2018-10-09T00:21:38.394Z,8.11
2018-10-09T00:22:38.371Z,8.18
2018-10-09T00:23:38.358Z,8.12
2018-10-09T00:24:38.329Z,8.15
2018-10-09T00:25:38.309Z,8.08
2018-10-09T00:26:38.285Z,7.95
2018-10-09T00:27:38.268Z,7.90
2018-10-09T00:28:38.243Z,7.67
2018-10-09T00:29:38.221Z,7.46
2018-10-09T00:30:38.202Z,7.35
2018-10-09T00:31:38.176Z,7.28
2018-10-09T00:32:38.156Z,7.34
2018-10-09T00:33:38.134Z,7.24
2018-10-09T00:34:38.111Z,7.25
2018-10-09T00:35:38.091Z,7.16
2018-10-09T00:36:38.069Z,7.17
2018-10-09T00:37:38.053Z,7.24
2018-10-09T00:38:38.033Z,7.23
2018-10-09T00:39:38.003Z,7.32
2018-10-09T00:40:37.987Z,7.23
2018-10-09T00:41:37.962Z,7.20
2018-10-09T00:42:37.939Z,7.24
2018-10-09T00:43:37.918Z,7.23
2018-10-09T00:44:37.905Z,7.25
2018-10-09T00:45:37.875Z,7.21
2018-10-09T00:46:37.854Z,7.27
2018-10-09T00:47:37.834Z,7.21
2018-10-09T00:48:37.816Z,7.34
2018-10-09T00:49:37.791Z,7.21
2018-10-09T00:50:37.770Z,7.23
2018-10-09T00:51:37.747Z,7.28
2018-10-09T00:52:37.724Z,7.27
2018-10-09T00:53:37.705Z,7.39
2018-10-09T00:54:37.680Z,7.42
2018-10-09T00:55:37.668Z,7.50
2018-10-09T00:56:37.637Z,7.46
2018-10-09T00:57:37.617Z,7.40
2018-10-09T00:58:37.596Z,7.35
2018-10-09T00:59:37.573Z,7.30
2018-10-09T01:00:37.553Z,7.31
2018-10-09T01:01:37.535Z,7.24
2018-10-09T01:02:37.506Z,7.16
2018-10-09T01:03:37.485Z,7.12
2018-10-09T01:04:37.466Z,7.17
2018-10-09T01:05:37.444Z,7.12
2018-10-09T01:06:37.421Z,7.24
2018-10-09T01:07:37.399Z,7.25
2018-10-09T01:08:37.381Z,7.27
2018-10-09T01:09:37.360Z,7.25
2018-10-09T01:10:37.335Z,7.24
2018-10-09T01:11:37.315Z,7.25
2018-10-09T01:12:37.297Z,7.24
2018-10-09T01:13:37.273Z,7.23
2018-10-09T01:14:37.248Z,7.40
2018-10-09T01:15:37.229Z,7.37
2018-10-09T01:16:37.210Z,7.42
2018-10-09T01:17:37.183Z,7.43
2018-10-09T01:18:37.165Z,7.43
2018-10-09T01:19:37.140Z,7.39
2018-10-09T01:20:37.120Z,7.30
2018-10-09T01:21:37.104Z,7.16
2018-10-09T01:22:37.080Z,7.12
2018-10-09T01:23:37.053Z,7.09
2018-10-09T01:24:37.035Z,7.05
2018-10-09T01:25:37.011Z,6.81
2018-10-09T01:26:36.988Z,6.88
2018-10-09T01:27:36.967Z,6.87
2018-10-09T01:28:36.945Z,6.81
2018-10-09T01:29:36.925Z,6.94
2018-10-09T01:30:36.957Z,6.95
2018-10-09T01:31:36.882Z,6.89
2018-10-09T01:32:36.858Z,6.95
2018-10-09T01:33:36.837Z,6.95
2018-10-09T01:34:36.820Z,6.91
2018-10-09T01:35:36.794Z,6.91
2018-10-09T01:36:36.771Z,6.99
2018-10-09T01:37:36.750Z,7.16
2018-10-09T01:38:36.728Z,7.15
2018-10-09T01:39:36.707Z,7.25
2018-10-09T01:40:36.685Z,7.25
2018-10-09T01:41:36.664Z,7.35
2018-10-09T01:42:36.641Z,7.37
2018-10-09T01:43:36.624Z,7.45
2018-10-09T01:44:36.598Z,7.49
2018-10-09T01:45:36.581Z,7.42
2018-10-09T01:46:36.555Z,7.50
2018-10-09T01:47:36.533Z,7.45
2018-10-09T01:48:36.512Z,7.48
2018-10-09T01:49:36.492Z,7.50
2018-10-09T01:50:36.468Z,7.67
2018-10-09T01:51:36.447Z,7.61
2018-10-09T01:52:36.430Z,7.68
2018-10-09T01:53:36.403Z,7.49
2018-10-09T01:54:36.381Z,7.46
2018-10-09T01:55:36.358Z,7.43
2018-10-09T01:56:36.340Z,7.35
2018-10-09T01:57:36.322Z,7.30
2018-10-09T01:58:36.295Z,7.27
2018-10-09T01:59:36.274Z,7.37
2018-10-09T02:00:36.254Z,7.35
2018-10-09T02:01:36.228Z,7.32
2018-10-09T02:02:36.208Z,7.49
2018-10-09T02:03:36.185Z,7.50
2018-10-09T02:04:36.163Z,7.57
2018-10-09T02:05:36.144Z,7.50
2018-10-09T02:06:36.120Z,7.52
2018-10-09T02:07:36.097Z,7.52
2018-10-09T02:08:36.076Z,7.21
2018-10-09T02:09:36.057Z,7.20
2018-10-09T02:10:36.033Z,7.07
2018-10-09T02:11:36.012Z,7.07
2018-10-09T02:12:35.991Z,7.05
2018-10-09T02:13:35.969Z,7.06
2018-10-09T02:14:35.946Z,7.03
2018-10-09T02:15:35.925Z,6.92
2018-10-09T02:16:35.903Z,6.97
2018-10-09T02:17:35.884Z,6.91
2018-10-09T02:18:35.857Z,6.84
2018-10-09T02:19:35.839Z,6.77
2018-10-09T02:20:35.814Z,6.85
2018-10-09T02:21:35.794Z,6.87
2018-10-09T02:22:35.770Z,6.87
2018-10-09T02:23:35.749Z,6.91
2018-10-09T02:24:35.727Z,6.97
2018-10-09T02:25:35.710Z,6.99
2018-10-09T02:26:35.694Z,7.09
2018-10-09T02:27:35.661Z,7.15
2018-10-09T02:28:35.640Z,7.16
2018-10-09T02:29:35.617Z,7.21
2018-10-09T02:30:35.596Z,7.34
2018-10-09T02:31:35.576Z,7.25
2018-10-09T02:32:35.553Z,7.28
2018-10-09T02:33:35.568Z,7.34
2018-10-09T02:34:35.508Z,7.34
2018-10-09T02:35:35.489Z,7.35
2018-10-09T02:36:35.468Z,7.35
2018-10-09T02:37:35.444Z,7.39
2018-10-09T02:38:35.421Z,7.24
2018-10-09T02:39:35.398Z,7.21
2018-10-09T02:40:35.377Z,7.21
2018-10-09T02:41:35.357Z,7.24
2018-10-09T02:42:35.333Z,7.20
2018-10-09T02:43:35.313Z,7.34
2018-10-09T02:44:35.292Z,7.21
2018-10-09T02:45:35.270Z,7.25
2018-10-09T02:46:35.246Z,7.17
2018-10-09T02:47:35.229Z,7.09
2018-10-09T02:48:35.204Z,6.92
2018-10-09T02:49:35.182Z,6.95
2018-10-09T02:50:35.158Z,6.94
2018-10-09T02:51:35.138Z,7.05
2018-10-09T02:52:35.115Z,7.06
2018-10-09T02:53:35.100Z,7.09
2018-10-09T02:54:35.072Z,7.17
2018-10-09T02:55:35.050Z,7.09
2018-10-09T02:56:35.027Z,7.03
2018-10-09T02:57:35.011Z,6.97
2018-10-09T02:58:34.984Z,6.92
2018-10-09T02:59:34.962Z,7.07
2018-10-09T03:00:34.949Z,6.92
2018-10-09T03:01:34.918Z,6.94
2018-10-09T03:02:34.905Z,6.80
2018-10-09T03:03:34.875Z,6.62
2018-10-09T03:04:34.860Z,6.44
2018-10-09T03:05:34.836Z,6.31
2018-10-09T03:06:34.807Z,6.22
2018-10-09T03:07:34.787Z,6.30
2018-10-09T03:08:34.829Z,6.28
2018-10-09T03:09:34.744Z,6.40
2018-10-09T03:10:34.722Z,6.36
2018-10-09T03:11:34.698Z,6.54
2018-10-09T03:12:34.677Z,6.64
2018-10-09T03:13:34.654Z,6.56
2018-10-09T03:14:34.637Z,6.64
2018-10-09T03:15:34.616Z,6.73
2018-10-09T03:16:34.591Z,6.76
2018-10-09T03:17:34.576Z,6.84
2018-10-09T03:18:34.551Z,6.77
2018-10-09T03:19:34.528Z,6.80
2018-10-09T03:20:34.517Z,6.61
2018-10-09T03:21:34.479Z,6.46
2018-10-09T03:22:34.456Z,6.40
2018-10-09T03:23:34.440Z,6.11
2018-10-09T03:24:34.412Z,6.19
2018-10-09T03:25:34.392Z,6.25
2018-10-09T03:26:34.367Z,6.09
2018-10-09T03:27:34.345Z,6.14
2018-10-09T03:28:34.324Z,6.19
2018-10-09T03:29:34.313Z,6.22
2018-10-09T03:30:34.282Z,6.15
2018-10-09T03:31:34.261Z,6.22
2018-10-09T03:32:34.238Z,6.01
2018-10-09T03:33:34.215Z,6.03
2018-10-09T03:34:34.194Z,6.01
2018-10-09T03:35:34.180Z,6.00
2018-10-09T03:36:34.148Z,6.03
2018-10-09T03:37:34.128Z,6.03
2018-10-09T03:38:34.105Z,6.28
2018-10-09T03:39:34.083Z,6.31
2018-10-09T03:40:34.063Z,6.28
2018-10-09T03:41:34.039Z,6.43
2018-10-09T03:42:34.016Z,6.44
2018-10-09T03:43:33.994Z,6.55
2018-10-09T03:44:33.971Z,6.62
2018-10-09T03:45:33.952Z,6.56
2018-10-09T03:46:33.926Z,6.59
2018-10-09T03:47:33.912Z,6.66
2018-10-09T03:48:33.884Z,6.64
2018-10-09T03:49:33.862Z,6.55
2018-10-09T03:50:33.840Z,6.64
2018-10-09T03:51:33.817Z,6.62
2018-10-09T03:52:33.793Z,6.59
2018-10-09T03:53:33.772Z,6.56
2018-10-09T03:54:33.748Z,6.49
2018-10-09T03:55:33.727Z,6.49
2018-10-09T03:56:33.706Z,6.37
2018-10-09T03:57:33.686Z,6.34
2018-10-09T03:58:33.661Z,6.21
2018-10-09T03:59:33.642Z,6.04
2018-10-09T04:00:33.618Z,6.08
2018-10-09T04:01:33.596Z,5.97
2018-10-09T04:02:33.574Z,5.96
2018-10-09T04:03:33.551Z,5.96
2018-10-09T04:04:33.530Z,5.96
2018-10-09T04:05:33.508Z,5.93
2018-10-09T04:06:33.484Z,5.94
2018-10-09T04:07:33.464Z,6.03
2018-10-09T04:08:33.439Z,6.04
2018-10-09T04:09:33.495Z,6.08
2018-10-09T04:10:33.396Z,6.17
2018-10-09T04:11:33.377Z,6.21
2018-10-09T04:12:33.387Z,6.30
2018-10-09T04:13:33.332Z,6.30
2018-10-09T04:14:33.307Z,6.40
2018-10-09T04:15:33.285Z,6.40
2018-10-09T04:16:33.261Z,6.43
2018-10-09T04:17:33.241Z,6.48
2018-10-09T04:18:33.221Z,6.48
2018-10-09T04:19:33.289Z,6.48
2018-10-09T04:20:33.175Z,6.48
2018-10-09T04:21:33.151Z,6.55
2018-10-09T04:22:33.130Z,6.61
2018-10-09T04:23:33.108Z,6.67
2018-10-09T04:24:33.088Z,6.74
2018-10-09T04:25:33.066Z,6.74
2018-10-09T04:26:33.047Z,6.84
2018-10-09T04:27:33.019Z,6.87
2018-10-09T04:28:32.998Z,6.84
2018-10-09T04:29:33.034Z,6.84
2018-10-09T04:30:32.954Z,6.85
2018-10-09T04:31:32.933Z,6.85
2018-10-09T04:32:32.909Z,6.88
2018-10-09T04:33:32.887Z,6.81
2018-10-09T04:34:32.864Z,6.71
2018-10-09T04:35:32.897Z,6.56
2018-10-09T04:36:32.822Z,6.37
2018-10-09T04:37:32.798Z,6.14
2018-10-09T04:38:32.775Z,6.21
2018-10-09T04:39:32.756Z,6.08
2018-10-09T04:40:32.731Z,5.99
2018-10-09T04:41:32.708Z,6.01
2018-10-09T04:42:32.686Z,5.99
2018-10-09T04:43:32.664Z,6.00
2018-10-09T04:44:32.645Z,5.97
2018-10-09T04:45:32.732Z,6.03
2018-10-09T04:46:32.597Z,6.04
2018-10-09T04:47:32.578Z,6.08
2018-10-09T04:48:32.553Z,6.15
2018-10-09T04:49:32.532Z,6.15
2018-10-09T04:50:32.509Z,6.25
2018-10-09T04:51:32.486Z,6.30
2018-10-09T04:52:32.464Z,6.34
2018-10-09T04:53:32.442Z,6.36
2018-10-09T04:54:32.421Z,6.37
2018-10-09T04:55:32.397Z,6.51
2018-10-09T04:56:32.374Z,6.49
2018-10-09T04:57:32.353Z,6.44
2018-10-09T04:58:32.330Z,6.48
2018-10-09T04:59:32.307Z,6.54
2018-10-09T05:00:32.304Z,6.58
2018-10-09T05:01:32.266Z,6.54
2018-10-09T05:02:32.243Z,6.58
2018-10-09T05:03:32.219Z,6.62
2018-10-09T05:04:32.198Z,6.73
2018-10-09T05:05:32.175Z,6.62
2018-10-09T05:06:32.153Z,6.59
2018-10-09T05:07:32.133Z,6.59
2018-10-09T05:08:32.108Z,6.59
2018-10-09T05:09:32.090Z,6.61
2018-10-09T05:10:32.063Z,6.27
2018-10-09T05:11:32.045Z,6.08
2018-10-09T05:12:32.022Z,5.93
2018-10-09T05:13:32.001Z,5.85
2018-10-09T05:14:31.980Z,5.86
2018-10-09T05:15:31.953Z,5.81
2018-10-09T05:16:31.931Z,5.68
2018-10-09T05:17:31.910Z,5.75
2018-10-09T05:18:31.882Z,5.61
2018-10-09T05:19:31.866Z,5.65
2018-10-09T05:20:31.843Z,5.61
2018-10-09T05:21:31.833Z,5.54
2018-10-09T05:22:31.798Z,5.60
2018-10-09T05:23:31.776Z,5.54
2018-10-09T05:24:31.756Z,5.53
2018-10-09T05:25:31.732Z,5.58
2018-10-09T05:26:31.706Z,5.60
2018-10-09T05:27:31.686Z,5.81
2018-10-09T05:28:31.664Z,5.78
2018-10-09T05:29:31.663Z,6.01
2018-10-09T05:30:31.631Z,5.94
2018-10-09T05:31:31.655Z,6.03
2018-10-09T05:32:31.576Z,6.15
2018-10-09T05:33:31.555Z,6.18
2018-10-09T05:34:31.527Z,6.14
2018-10-09T05:35:31.510Z,6.18
2018-10-09T05:36:31.485Z,6.06
2018-10-09T05:37:31.483Z,5.97
2018-10-09T05:38:31.442Z,5.90
2018-10-09T05:39:31.419Z,5.94
2018-10-09T05:40:31.394Z,6.01
2018-10-09T05:41:31.376Z,6.06
2018-10-09T05:42:31.348Z,6.12
2018-10-09T05:43:32.277Z,6.17
2018-10-09T05:44:31.328Z,6.33
2018-10-09T05:45:31.283Z,6.11
2018-10-09T05:46:31.264Z,6.37
2018-10-09T05:47:31.238Z,6.21
2018-10-09T05:48:31.216Z,6.31
2018-10-09T05:49:31.197Z,6.40
2018-10-09T05:50:31.171Z,6.33
2018-10-09T05:51:31.147Z,6.36
2018-10-09T05:52:31.235Z,6.37
2018-10-09T05:53:31.105Z,6.21
2018-10-09T05:54:31.082Z,6.25
2018-10-09T05:55:31.060Z,6.28
2018-10-09T05:56:31.040Z,6.34
2018-10-09T05:57:31.016Z,6.28
2018-10-09T05:58:30.993Z,6.17
2018-10-09T05:59:30.969Z,6.30
2018-10-09T06:00:30.947Z,6.17
2018-10-09T06:01:30.924Z,6.21
2018-10-09T06:02:30.901Z,6.36
2018-10-09T06:03:30.880Z,6.21
2018-10-09T06:04:30.863Z,6.17
2018-10-09T06:05:30.837Z,6.17
2018-10-09T06:06:30.812Z,6.17
2018-10-09T06:07:30.790Z,6.17
2018-10-09T06:08:30.768Z,6.21
2018-10-09T06:09:30.746Z,6.11
2018-10-09T06:10:30.723Z,6.14
2018-10-09T06:11:30.709Z,6.18
2018-10-09T06:12:30.680Z,6.19
2018-10-09T06:13:30.657Z,6.31
2018-10-09T06:14:30.635Z,6.33
2018-10-09T06:15:30.722Z,6.34
2018-10-09T06:16:30.594Z,6.30
2018-10-09T06:17:30.571Z,6.36
2018-10-09T06:18:30.546Z,6.37
2018-10-09T06:19:30.523Z,6.36
2018-10-09T06:20:30.502Z,6.38
2018-10-09T06:21:30.478Z,6.46
2018-10-09T06:22:30.457Z,6.40
2018-10-09T06:23:30.436Z,6.38
2018-10-09T06:24:30.412Z,6.41
2018-10-09T06:25:30.390Z,6.28
2018-10-09T06:26:30.374Z,6.31
2018-10-09T06:27:30.344Z,6.14
2018-10-09T06:28:30.434Z,6.25
2018-10-09T06:29:30.305Z,6.14
2018-10-09T06:30:30.279Z,6.14
2018-10-09T06:31:30.255Z,6.19
2018-10-09T06:32:30.234Z,6.36
2018-10-09T06:33:30.221Z,6.41
2018-10-09T06:34:30.189Z,6.46
2018-10-09T06:35:30.169Z,6.61
2018-10-09T06:36:30.145Z,6.54
2018-10-09T06:37:30.123Z,6.61
2018-10-09T06:38:30.100Z,6.66
2018-10-09T06:39:30.081Z,6.73
2018-10-09T06:40:30.158Z,6.79
2018-10-09T06:41:30.040Z,6.81
2018-10-09T06:42:30.022Z,6.80
2018-10-09T06:43:29.990Z,6.87
2018-10-09T06:44:29.967Z,6.98
2018-10-09T06:45:29.948Z,6.92
2018-10-09T06:46:29.932Z,6.92
2018-10-09T06:47:29.917Z,6.92
2018-10-09T06:48:29.877Z,6.89
2018-10-09T06:49:29.856Z,6.95
2018-10-09T06:50:29.832Z,6.92
2018-10-09T06:51:29.809Z,6.95
2018-10-09T06:52:29.788Z,7.05
2018-10-09T06:53:29.846Z,7.15
2018-10-09T06:54:29.776Z,7.07
2018-10-09T06:55:29.730Z,7.06
2018-10-09T06:56:29.701Z,7.20
2018-10-09T06:57:29.680Z,7.17
2018-10-09T06:58:29.657Z,7.24
2018-10-09T06:59:29.645Z,7.23
2018-10-09T07:00:29.619Z,7.24
2018-10-09T07:01:29.591Z,7.27
2018-10-09T07:02:29.569Z,7.35
2018-10-09T07:03:29.550Z,7.32
2018-10-09T07:04:29.525Z,7.45
2018-10-09T07:05:29.504Z,7.52
2018-10-09T07:06:29.530Z,7.58
2018-10-09T07:07:29.459Z,7.63
2018-10-09T07:08:29.442Z,7.64
2018-10-09T07:09:29.432Z,7.74
2018-10-09T07:10:29.393Z,7.72
2018-10-09T07:11:29.390Z,7.69
2018-10-09T07:12:29.351Z,7.75
2018-10-09T07:13:29.328Z,7.83
2018-10-09T07:14:29.304Z,7.87
2018-10-09T07:15:29.283Z,7.95
2018-10-09T07:16:29.261Z,7.97
2018-10-09T07:17:29.251Z,7.93
2018-10-09T07:18:29.218Z,8.07
2018-10-09T07:19:29.195Z,8.00
2018-10-09T07:20:29.175Z,7.95
2018-10-09T07:21:29.152Z,7.97
2018-10-09T07:22:29.136Z,7.92
2018-10-09T07:23:29.110Z,7.95
2018-10-09T07:24:29.092Z,8.00
2018-10-09T07:25:29.066Z,8.11
2018-10-09T07:26:29.051Z,8.15
2018-10-09T07:27:29.020Z,8.08
2018-10-09T07:28:29.000Z,8.25
2018-10-09T07:29:28.977Z,8.36
2018-10-09T07:30:28.953Z,8.37
2018-10-09T07:31:28.933Z,8.41
2018-10-09T07:32:28.912Z,8.53
2018-10-09T07:33:28.893Z,8.59
2018-10-09T07:34:28.867Z,8.62
2018-10-09T07:35:28.848Z,8.65
2018-10-09T07:36:28.827Z,8.66
2018-10-09T07:37:28.827Z,8.70
2018-10-09T07:38:28.782Z,8.68
2018-10-09T07:39:28.766Z,8.71
2018-10-09T07:40:28.745Z,8.80
2018-10-09T07:41:28.719Z,8.80
2018-10-09T07:42:28.703Z,8.87
2018-10-09T07:43:28.674Z,8.92
2018-10-09T07:44:28.652Z,9.01
2018-10-09T07:45:28.632Z,9.10
2018-10-09T07:46:28.621Z,9.15
2018-10-09T07:47:28.589Z,9.17
2018-10-09T07:48:28.568Z,9.24
2018-10-09T07:49:28.543Z,9.23
2018-10-09T07:50:28.533Z,9.35
2018-10-09T07:51:28.501Z,9.40
2018-10-09T07:52:28.484Z,9.42
2018-10-09T07:53:28.457Z,9.40
2018-10-09T07:54:28.439Z,9.48
2018-10-09T07:55:28.460Z,9.60
2018-10-09T07:56:28.395Z,9.61
2018-10-09T07:57:28.383Z,9.71
2018-10-09T07:58:28.380Z,9.71
2018-10-09T07:59:28.331Z,9.83
2018-10-09T08:00:28.313Z,9.89
2018-10-09T08:01:28.290Z,9.90
2018-10-09T08:02:28.271Z,9.96
2018-10-09T08:03:28.247Z,9.99
2018-10-09T08:04:28.227Z,10.04
2018-10-09T08:05:28.203Z,10.07
2018-10-09T08:06:28.188Z,10.08
2018-10-09T08:07:28.167Z,10.07
2018-10-09T08:08:28.144Z,10.07
2018-10-09T08:09:28.123Z,10.22
2018-10-09T08:10:28.194Z,10.14
2018-10-09T08:11:28.079Z,10.29
2018-10-09T08:12:28.057Z,10.32
2018-10-09T08:13:28.043Z,10.36
2018-10-09T08:14:28.013Z,10.41
2018-10-09T08:15:27.997Z,10.41
2018-10-09T08:16:28.067Z,10.47
2018-10-09T08:17:27.960Z,10.52
2018-10-09T08:18:27.934Z,10.55
2018-10-09T08:19:27.909Z,10.68
2018-10-09T08:20:27.890Z,10.64
2018-10-09T08:21:27.873Z,10.73
2018-10-09T08:22:27.931Z,10.78
2018-10-09T08:23:27.828Z,10.73
2018-10-09T08:24:27.809Z,10.84
2018-10-09T08:25:27.791Z,10.91
2018-10-09T08:26:27.762Z,10.96
2018-10-09T08:27:27.742Z,11.04
2018-10-09T08:28:27.727Z,11.07
2018-10-09T08:29:27.701Z,11.18
2018-10-09T08:30:27.679Z,11.22
2018-10-09T08:31:27.657Z,11.28
2018-10-09T08:32:27.647Z,11.36
2018-10-09T08:33:27.618Z,11.35
2018-10-09T08:34:27.670Z,11.33
2018-10-09T08:35:27.573Z,11.44
2018-10-09T08:36:27.564Z,11.37
2018-10-09T08:37:27.535Z,11.40
2018-10-09T08:38:27.512Z,11.47
2018-10-09T08:39:27.497Z,11.46
2018-10-09T08:40:27.631Z,11.46
2018-10-09T08:41:27.451Z,11.43
2018-10-09T08:42:27.437Z,11.46
2018-10-09T08:43:27.409Z,11.40
2018-10-09T08:44:27.402Z,11.40
2018-10-09T08:45:27.369Z,11.40
2018-10-09T08:46:27.419Z,11.49
2018-10-09T08:47:27.331Z,11.52
2018-10-09T08:48:27.315Z,11.54
2018-10-09T08:49:27.297Z,11.55
2018-10-09T08:50:27.264Z,11.54
2018-10-09T08:51:27.244Z,11.46
2018-10-09T08:52:27.223Z,11.47
2018-10-09T08:53:27.206Z,11.43
2018-10-09T08:54:27.182Z,11.47
2018-10-09T08:55:27.162Z,11.44
2018-10-09T08:56:27.140Z,11.44
2018-10-09T08:57:27.214Z,11.44
2018-10-09T08:58:27.100Z,11.39
2018-10-09T08:59:27.081Z,11.47
2018-10-09T09:00:27.068Z,11.46
2018-10-09T09:01:27.043Z,11.44
2018-10-09T09:02:27.021Z,11.57
2018-10-09T09:03:27.053Z,11.52
2018-10-09T09:04:26.982Z,11.40
2018-10-09T09:05:26.961Z,11.46
2018-10-09T09:06:26.936Z,11.40
2018-10-09T09:07:26.921Z,11.55
2018-10-09T09:08:26.897Z,11.51
2018-10-09T09:09:26.914Z,11.46
2018-10-09T09:10:26.865Z,11.37
2018-10-09T09:11:26.832Z,11.40
2018-10-09T09:12:26.815Z,11.47
2018-10-09T09:13:26.793Z,11.49
2018-10-09T09:14:26.776Z,11.40
2018-10-09T09:15:26.840Z,11.35
2018-10-09T09:16:26.731Z,11.36
2018-10-09T09:17:26.710Z,11.42
2018-10-09T09:18:26.689Z,11.47
2018-10-09T09:19:26.668Z,11.40
2018-10-09T09:20:26.677Z,11.44
2018-10-09T09:21:26.628Z,11.43
2018-10-09T09:22:26.606Z,11.52
2018-10-09T09:23:26.588Z,11.49
2018-10-09T09:24:26.567Z,11.54
2018-10-09T09:25:26.551Z,11.54
2018-10-09T09:26:26.600Z,11.57
2018-10-09T09:27:26.636Z,11.60
2018-10-09T09:28:26.483Z,11.69
2018-10-09T09:29:26.464Z,11.80
2018-10-09T09:30:26.446Z,11.78
2018-10-09T09:31:26.423Z,11.91
2018-10-09T09:32:26.402Z,12.02
2018-10-09T09:33:26.382Z,11.98
2018-10-09T09:34:26.366Z,12.02
2018-10-09T09:35:26.343Z,12.07
2018-10-09T09:36:26.323Z,12.17
2018-10-09T09:37:26.302Z,12.31
2018-10-09T09:38:26.282Z,12.29
2018-10-09T09:39:26.261Z,12.42
2018-10-09T09:40:26.241Z,12.47
2018-10-09T09:41:26.221Z,12.57
2018-10-09T09:42:26.201Z,12.65
2018-10-09T09:43:26.179Z,12.68
2018-10-09T09:44:26.161Z,12.71
2018-10-09T09:45:26.140Z,12.82
2018-10-09T09:46:26.118Z,12.79
2018-10-09T09:47:26.101Z,12.95
2018-10-09T09:48:26.077Z,12.97
2018-10-09T09:49:26.066Z,13.01
2018-10-09T09:50:26.037Z,13.12
2018-10-09T09:51:26.018Z,13.15
2018-10-09T09:52:26.002Z,13.17
2018-10-09T09:53:25.978Z,13.15
2018-10-09T09:54:25.958Z,13.20
2018-10-09T09:55:25.947Z,13.15
2018-10-09T09:56:25.925Z,13.17
2018-10-09T09:57:25.907Z,13.14
2018-10-09T09:58:26.040Z,13.11
2018-10-09T09:59:25.931Z,13.07
2018-10-09T10:00:25.841Z,13.11
2018-10-09T10:01:25.824Z,13.19
2018-10-09T10:02:25.808Z,13.22
2018-10-09T10:03:25.781Z,13.23
2018-10-09T10:04:25.768Z,13.20
2018-10-09T10:05:25.746Z,13.39
2018-10-09T10:06:25.717Z,13.30
2018-10-09T10:07:25.700Z,13.41
2018-10-09T10:08:25.679Z,13.38
2018-10-09T10:09:25.788Z,13.49
2018-10-09T10:10:25.639Z,13.39
2018-10-09T10:11:25.621Z,13.54
2018-10-09T10:12:25.602Z,13.48
2018-10-09T10:13:25.580Z,13.62
2018-10-09T10:14:25.564Z,13.57
2018-10-09T10:15:25.548Z,13.62
2018-10-09T10:16:25.540Z,13.54
2018-10-09T10:17:25.504Z,13.55
2018-10-09T10:18:25.485Z,13.57
2018-10-09T10:19:25.462Z,13.66
2018-10-09T10:20:25.449Z,13.70
2018-10-09T10:21:25.497Z,13.81
2018-10-09T10:22:25.404Z,13.91
2018-10-09T10:23:25.391Z,13.82
2018-10-09T10:24:25.363Z,13.81
2018-10-09T10:25:25.348Z,13.91
2018-10-09T10:26:25.337Z,13.92
2018-10-09T10:27:25.306Z,14.07
2018-10-09T10:28:25.312Z,14.12
2018-10-09T10:29:25.269Z,14.24
2018-10-09T10:30:25.249Z,14.21
2018-10-09T10:31:25.233Z,14.25
2018-10-09T10:32:25.208Z,14.33
2018-10-09T10:33:25.190Z,14.33
2018-10-09T10:34:25.173Z,14.54
2018-10-09T10:35:25.158Z,14.57
2018-10-09T10:36:25.135Z,14.68
2018-10-09T10:37:25.114Z,14.75
2018-10-09T10:38:25.092Z,14.73
2018-10-09T10:39:25.075Z,14.88
2018-10-09T10:40:25.055Z,15.03
2018-10-09T10:41:25.034Z,15.17
2018-10-09T10:42:25.017Z,15.34
2018-10-09T10:43:25.005Z,15.38
2018-10-09T10:44:25.000Z,15.43
2018-10-09T10:45:24.963Z,15.53
2018-10-09T10:46:24.939Z,15.54
2018-10-09T10:47:24.919Z,15.46
2018-10-09T10:48:24.903Z,15.46
2018-10-09T10:49:24.941Z,15.53
2018-10-09T10:50:24.871Z,15.46
2018-10-09T10:51:24.850Z,15.57
2018-10-09T10:52:24.824Z,15.69
2018-10-09T10:53:24.806Z,15.71
2018-10-09T10:54:24.787Z,15.84
2018-10-09T10:55:24.770Z,15.89
2018-10-09T10:56:24.750Z,15.96
2018-10-09T10:57:24.732Z,16.01
2018-10-09T10:58:24.715Z,16.01
2018-10-09T10:59:24.697Z,16.04
2018-10-09T11:00:24.675Z,16.17
2018-10-09T11:01:24.769Z,16.04
2018-10-09T11:02:24.639Z,16.07
2018-10-09T11:03:24.620Z,15.94
2018-10-09T11:04:24.607Z,16.05
2018-10-09T11:05:24.592Z,16.12
2018-10-09T11:06:24.566Z,16.17
2018-10-09T11:07:24.544Z,16.30
2018-10-09T11:08:24.642Z,16.20
2018-10-09T11:09:24.512Z,16.27
2018-10-09T11:10:24.492Z,16.05
2018-10-09T11:11:24.481Z,16.09
2018-10-09T11:12:24.453Z,16.15
2018-10-09T11:13:24.434Z,16.05
2018-10-09T11:14:24.430Z,16.02
2018-10-09T11:15:24.396Z,16.08
2018-10-09T11:16:24.388Z,16.08
2018-10-09T11:17:24.361Z,16.09
2018-10-09T11:18:24.343Z,16.04
2018-10-09T11:19:24.326Z,16.08
2018-10-09T11:20:24.304Z,16.11
2018-10-09T11:21:24.434Z,16.08
2018-10-09T11:22:24.264Z,16.12
2018-10-09T11:23:24.252Z,16.08
2018-10-09T11:24:24.228Z,16.09
2018-10-09T11:25:24.209Z,16.04
2018-10-09T11:26:24.190Z,16.04
2018-10-09T11:27:24.178Z,16.05
2018-10-09T11:28:24.154Z,15.97
2018-10-09T11:29:24.134Z,16.02
2018-10-09T11:30:24.116Z,15.97
2018-10-09T11:31:24.097Z,16.01
2018-10-09T11:32:24.114Z,16.05
2018-10-09T11:33:24.064Z,16.07
2018-10-09T11:34:24.055Z,16.07
2018-10-09T11:35:24.033Z,16.00
2018-10-09T11:36:24.009Z,16.04
2018-10-09T11:37:23.989Z,16.01
2018-10-09T11:38:23.968Z,16.00
2018-10-09T11:39:23.949Z,16.02
2018-10-09T11:40:23.933Z,16.08
2018-10-09T11:41:23.916Z,16.04
2018-10-09T11:42:23.893Z,16.23
2018-10-09T11:43:23.876Z,16.17
2018-10-09T11:44:23.857Z,16.33
2018-10-09T11:45:23.838Z,16.34
2018-10-09T11:46:23.818Z,16.42
2018-10-09T11:47:23.801Z,16.52
2018-10-09T11:48:23.790Z,16.57
2018-10-09T11:49:23.768Z,16.64
2018-10-09T11:50:23.745Z,16.70
2018-10-09T11:51:23.726Z,16.78
2018-10-09T11:52:23.709Z,16.88
2018-10-09T11:53:23.691Z,16.91
2018-10-09T11:54:23.671Z,16.89
2018-10-09T11:55:23.653Z,16.96
2018-10-09T11:56:23.636Z,17.00
2018-10-09T11:57:23.623Z,17.06
2018-10-09T11:58:23.606Z,17.00
2018-10-09T11:59:23.580Z,17.03
2018-10-09T12:00:23.565Z,17.12
2018-10-09T12:01:23.545Z,17.06
2018-10-09T12:02:23.527Z,17.07
2018-10-09T12:03:23.517Z,16.98
2018-10-09T12:04:23.497Z,17.07
2018-10-09T12:05:23.482Z,17.04
2018-10-09T12:06:23.452Z,16.97
2018-10-09T12:07:23.436Z,17.00
2018-10-09T12:08:23.416Z,16.96
2018-10-09T12:09:23.399Z,17.03
2018-10-09T12:10:23.379Z,17.06
2018-10-09T12:11:23.365Z,17.11
2018-10-09T12:12:23.353Z,17.11
2018-10-09T12:13:23.334Z,17.08
2018-10-09T12:14:23.307Z,17.06
2018-10-09T12:15:23.294Z,17.06
2018-10-09T12:16:23.311Z,17.08
2018-10-09T12:17:23.255Z,17.11
2018-10-09T12:18:23.264Z,17.11
2018-10-09T12:19:23.217Z,17.06
2018-10-09T12:20:23.204Z,17.08
2018-10-09T12:21:23.215Z,17.21
2018-10-09T12:22:23.162Z,17.19
2018-10-09T12:23:23.149Z,17.21
2018-10-09T12:24:23.128Z,17.28
2018-10-09T12:25:23.108Z,17.19
2018-10-09T12:26:23.090Z,17.23
2018-10-09T12:27:23.071Z,17.19
2018-10-09T12:28:23.057Z,17.23
2018-10-09T12:29:23.039Z,17.21
2018-10-09T12:30:23.021Z,17.30
2018-10-09T12:31:23.000Z,17.28
2018-10-09T12:32:22.982Z,17.22
2018-10-09T12:33:22.964Z,17.25
2018-10-09T12:34:22.948Z,17.14
2018-10-09T12:35:22.926Z,17.16
2018-10-09T12:36:22.912Z,17.14
2018-10-09T12:37:22.889Z,17.12
2018-10-09T12:38:22.895Z,17.21
2018-10-09T12:39:22.861Z,17.22
2018-10-09T12:40:22.840Z,17.19
2018-10-09T12:41:22.839Z,17.14
2018-10-09T12:42:22.801Z,17.12
2018-10-09T12:43:22.793Z,17.21
2018-10-09T12:44:22.871Z,17.21
2018-10-09T12:45:22.751Z,17.15
2018-10-09T12:46:22.728Z,17.18
2018-10-09T12:47:22.707Z,17.16
2018-10-09T12:48:22.701Z,17.15
2018-10-09T12:49:22.673Z,17.22
2018-10-09T12:50:22.654Z,17.15
2018-10-09T12:51:22.636Z,17.21
2018-10-09T12:52:22.619Z,17.19
2018-10-09T12:53:22.607Z,17.28
2018-10-09T12:54:22.585Z,17.33
2018-10-09T12:55:22.585Z,17.33
2018-10-09T12:56:22.552Z,17.37
2018-10-09T12:57:22.530Z,17.37
2018-10-09T12:58:22.526Z,17.40
2018-10-09T12:59:22.499Z,17.46
2018-10-09T13:00:22.474Z,17.40
2018-10-09T13:01:22.456Z,17.46
2018-10-09T13:02:22.451Z,17.44
2018-10-09T13:03:22.421Z,17.43
2018-10-09T13:04:22.409Z,17.46
2018-10-09T13:05:22.386Z,17.46
2018-10-09T13:06:22.382Z,17.51
2018-10-09T13:07:22.352Z,17.46
2018-10-09T13:08:22.340Z,17.40